Time;durP1;ratioP1;P1;durP2;ratioP2;P2;SDS_P1;SDS_P2;PMS_P1;PMS_P2;Temp;Humidity;BMP_temperature;BMP_pressure;BME280_temperature;BME280_humidity;BME280_pressure;Samples;Min_cycle;Max_cycle;Signal;HPM_P1;HPM_P2
2021/06/06 00:01:17;;;;;;;13.14;6.18;;;;;;;16.31;52.38;99098.23;378431;106;1961860;-72
2021/06/06 00:02:58;;;;;;;13.20;5.33;;;;;;;16.27;52.26;99097.90;364206;110;1960759;-73
2021/06/06 00:04:44;;;;;;;10.99;4.54;;;;;;;16.36;51.70;99104.55;355568;101;2163944;-72
2021/06/06 00:06:31;;;;;;;10.66;4.56;;;;;;;16.24;51.56;99096.52;384923;103;1962007;-73
2021/06/06 00:08:17;;;;;;;10.95;4.71;;;;;;;16.38;51.05;99096.09;412872;101;2046948;-73
2021/06/06 00:09:56;;;;;;;7.66;4.44;;;;;;;16.26;51.01;99099.81;371065;103;1962008;-73
2021/06/06 00:11:38;;;;;;;13.90;6.43;;;;;;;16.24;50.75;99098.42;313599;102;2246991;-72
2021/06/06 00:13:19;;;;;;;16.04;7.47;;;;;;;16.24;52.11;99098.42;388895;103;1962054;-72
2021/06/06 00:15:05;;;;;;;10.24;5.85;;;;;;;16.30;51.64;99102.02;394413;106;2037964;-72
2021/06/06 00:16:48;;;;;;;8.46;4.61;;;;;;;16.17;52.51;99097.83;340375;106;2556946;-72
2021/06/06 00:18:34;;;;;;;8.13;4.26;;;;;;;16.26;51.37;99098.99;389357;106;2049147;-71
2021/06/06 00:20:16;;;;;;;10.22;4.63;;;;;;;16.14;51.24;99095.59;374791;107;1962974;-71
2021/06/06 00:21:55;;;;;;;9.71;4.96;;;;;;;16.12;51.13;99098.58;372190;107;1964920;-73
2021/06/06 00:23:43;;;;;;;14.89;5.35;;;;;;;16.21;51.00;99096.22;400962;103;2048077;-72
2021/06/06 00:25:21;;;;;;;17.59;6.48;;;;;;;16.10;50.91;99095.28;377846;106;1961979;-72
2021/06/06 00:27:01;;;;;;;9.54;5.41;;;;;;;16.11;51.85;99096.10;331010;107;2778055;-73
2021/06/06 00:28:48;;;;;;;10.24;4.83;;;;;;;16.17;51.55;99090.47;388741;106;2046931;-71
2021/06/06 00:30:28;;;;;;;9.61;4.84;;;;;;;16.05;51.24;99098.77;371961;107;1962002;-71
2021/06/06 00:32:09;;;;;;;10.41;5.36;;;;;;;16.05;51.09;99100.67;371044;107;1962016;-72
2021/06/06 00:33:49;;;;;;;12.04;5.18;;;;;;;16.04;51.14;99090.87;368116;109;1961993;-72
2021/06/06 00:35:34;;;;;;;9.94;4.41;;;;;;;16.14;50.88;99092.86;399803;103;2046996;-71
2021/06/06 00:37:12;;;;;;;12.19;5.58;;;;;;;16.00;51.04;99090.54;379265;105;1962817;-73
2021/06/06 00:38:51;;;;;;;14.68;5.70;;;;;;;16.00;51.54;99092.45;381139;105;1961980;-72
2021/06/06 00:40:36;;;;;;;16.37;6.88;;;;;;;16.01;51.72;99080.48;383827;106;1961932;-73
2021/06/06 00:42:14;;;;;;;14.72;6.39;;;;;;;16.01;51.88;99085.94;382996;105;1962949;-73
2021/06/06 00:43:56;;;;;;;12.83;6.31;;;;;;;16.00;51.99;99090.54;379034;105;1961918;-73
2021/06/06 00:45:36;;;;;;;12.56;5.72;;;;;;;16.01;51.79;99086.75;379065;106;1961895;-73
2021/06/06 00:47:15;;;;;;;11.87;6.36;;;;;;;16.02;51.31;99080.22;379852;106;1964929;-72
2021/06/06 00:48:54;;;;;;;11.55;7.47;;;;;;;16.06;50.72;99083.23;375459;106;1962004;-73
2021/06/06 00:50:45;;;;;;;13.36;8.51;;;;;;;16.20;49.99;99075.50;385587;108;2047815;-71
2021/06/06 00:52:25;;;;;;;;;;;;;;;16.12;49.91;99084.95;369600;109;1961008;-69
2021/06/06 00:54:21;;;;;;;13.68;7.52;;;;;;;16.17;52.38;99076.02;351695;109;1961933;-71
2021/06/06 00:56:23;;;;;;;14.11;7.47;;;;;;;16.31;50.76;99081.88;383212;106;2047074;-72
2021/06/06 00:58:03;;;;;;;13.35;8.50;;;;;;;16.20;50.73;99081.77;361358;111;1961989;-71
2021/06/06 00:59:54;;;;;;;11.30;7.83;;;;;;;16.33;49.89;99077.81;384846;101;2046918;-73
2021/06/06 01:01:35;;;;;;;12.47;7.95;;;;;;;16.23;50.36;99075.80;390037;103;1961915;-71
2021/06/06 01:03:33;;;;;;;14.09;8.11;;;;;;;16.37;51.63;99072.66;330713;106;2188952;-72
2021/06/06 01:05:19;;;;;;;14.57;7.35;;;;;;;16.24;52.46;99074.71;370792;107;1961966;-71
2021/06/06 01:07:05;;;;;;;13.56;7.14;;;;;;;16.35;52.97;99074.81;407612;100;2047017;-71
2021/06/06 01:08:46;;;;;;;13.31;8.19;;;;;;;16.22;52.76;99073.32;355336;105;2388964;-70
2021/06/06 01:10:31;;;;;;;11.71;7.30;;;;;;;16.31;52.91;99070.98;397933;103;2046919;-71
2021/06/06 01:12:16;;;;;;;16.03;8.89;;;;;;;16.17;52.54;99068.67;380865;105;1962014;-70
2021/06/06 01:14:08;;;;;;;15.37;9.86;;;;;;;16.25;51.21;99073.65;392259;104;2046979;-72
2021/06/06 01:15:50;;;;;;;13.27;9.53;;;;;;;16.13;50.96;99062.07;375980;106;1961905;-70
2021/06/06 01:17:34;;;;;;;14.86;10.77;;;;;;;16.12;50.45;99068.61;376806;107;1960843;-73
2021/06/06 01:19:35;;;;;;;16.44;11.51;;;;;;;16.20;50.02;99068.15;400887;102;2045877;-72
2021/06/06 01:21:19;;;;;;;14.58;11.97;;;;;;;16.11;50.12;99060.68;360397;105;2381001;-72
2021/06/06 01:23:15;;;;;;;15.16;11.44;;;;;;;16.15;49.88;99067.28;310030;107;2222942;-72
2021/06/06 01:25:04;;;;;;;13.46;9.62;;;;;;;16.29;49.52;99064.95;403773;103;2046974;-71
2021/06/06 01:26:57;;;;;;;16.69;10.03;;;;;;;16.18;49.45;99070.30;342038;105;2632888;-71
2021/06/06 01:28:52;;;;;;;13.50;6.43;;;;;;;16.21;49.84;99074.41;377824;107;1962056;-72
2021/06/06 01:30:36;;;;;;;11.62;6.11;;;;;;;16.21;49.69;99069.78;361815;109;1962022;-72
2021/06/06 01:32:29;;;;;;;10.43;6.03;;;;;;;16.33;49.10;99066.91;394127;105;2028997;-72
2021/06/06 01:34:11;;;;;;;9.19;4.40;;;;;;;16.24;49.06;99068.44;375993;107;1961980;-72
2021/06/06 01:36:00;;;;;;;12.31;6.09;;;;;;;16.38;49.66;99064.23;409299;101;2047921;-72
2021/06/06 01:37:43;;;;;;;10.51;4.68;;;;;;;16.29;50.18;99073.95;355456;102;2528921;-72
2021/06/06 01:39:33;;;;;;;10.67;4.86;;;;;;;16.43;49.76;99077.06;404111;103;2044058;-72
2021/06/06 01:41:18;;;;;;;12.05;5.16;;;;;;;16.35;50.08;99074.81;383024;105;1962000;-72
2021/06/06 01:43:09;;;;;;;9.97;5.71;;;;;;;16.52;51.34;99072.80;391671;105;2036990;-73
2021/06/06 01:44:54;;;;;;;12.23;5.27;;;;;;;16.42;50.89;99072.70;375385;105;1960924;-72
2021/06/06 01:46:47;;;;;;;12.48;5.64;;;;;;;16.56;50.62;99079.36;392743;106;2036896;-70
2021/06/06 01:48:26;;;;;;;13.09;6.80;;;;;;;16.45;51.03;99075.73;339717;110;1963054;-72
2021/06/06 01:50:15;;;;;;;13.66;6.20;;;;;;;16.57;51.35;99080.22;343420;103;2234969;-74
2021/06/06 01:52:03;;;;;;;13.33;7.51;;;;;;;16.45;51.01;99075.73;374735;106;1962020;-73
2021/06/06 01:53:52;;;;;;;14.34;6.42;;;;;;;16.57;52.72;99083.75;410115;101;2048066;-73
2021/06/06 01:55:38;;;;;;;15.45;7.97;;;;;;;16.45;52.05;99083.91;391096;102;1961908;-72
2021/06/06 01:57:26;;;;;;;15.90;6.63;;;;;;;16.53;53.88;99082.62;390250;105;2044090;-73
2021/06/06 01:59:10;;;;;;;11.25;7.18;;;;;;;16.40;53.03;99080.31;368470;108;1962029;-74
2021/06/06 02:01:03;;;;;;;15.56;9.07;;;;;;;16.47;53.12;99075.48;404097;100;2909944;-73
2021/06/06 02:02:45;;;;;;;16.22;9.24;;;;;;;16.36;53.85;99076.48;385528;103;1963006;-73
2021/06/06 02:04:30;;;;;;;15.57;8.12;;;;;;;16.46;54.99;99080.12;406777;100;2045900;-72
2021/06/06 02:06:16;;;;;;;15.04;8.96;;;;;;;16.35;55.22;99080.27;390440;103;1962930;-72
2021/06/06 02:08:04;;;;;;;17.01;8.84;;;;;;;16.46;55.89;99082.03;348772;102;2881960;-72
2021/06/06 02:09:47;;;;;;;15.49;9.89;;;;;;;16.34;55.68;99081.36;380823;103;1961950;-72
2021/06/06 02:11:41;;;;;;;12.66;6.98;;;;;;;16.44;55.62;99076.82;353012;106;2648904;-73
2021/06/06 02:13:29;;;;;;;12.91;7.67;;;;;;;16.32;54.81;99081.60;373056;107;1962982;-72
2021/06/06 02:15:19;;;;;;;15.97;7.50;;;;;;;16.38;54.68;99080.59;408813;101;2047014;-71
2021/06/06 02:17:03;;;;;;;13.60;8.66;;;;;;;16.26;54.44;99071.73;389004;102;1961957;-73
2021/06/06 02:18:50;;;;;;;15.73;8.59;;;;;;;16.37;55.38;99078.92;378405;101;2436933;-71
2021/06/06 02:20:35;;;;;;;16.54;9.97;;;;;;;16.25;55.35;99079.10;389738;103;1961992;-73
2021/06/06 02:22:18;;;;;;;13.84;9.30;;;;;;;16.23;55.58;99077.71;367910;101;1962999;-70
2021/06/06 02:24:04;;;;;;;10.72;6.32;;;;;;;16.33;55.56;99071.55;347346;106;2699031;-71
2021/06/06 02:25:45;;;;;;;16.78;7.93;;;;;;;16.21;54.90;99074.41;306796;107;2223003;-72
2021/06/06 02:27:38;;;;;;;14.38;8.28;;;;;;;16.21;55.23;99069.78;373612;107;1962976;-73
2021/06/06 02:29:37;;;;;;;11.97;7.33;;;;;;;16.37;55.04;99072.66;345272;106;2818988;-72
2021/06/06 02:31:26;;;;;;;13.42;7.37;;;;;;;16.26;54.58;99071.73;373329;106;1963947;-73
2021/06/06 02:33:32;;;;;;;15.34;8.02;;;;;;;16.37;55.27;99078.11;391378;106;2046942;-72
2021/06/06 02:35:27;;;;;;;15.53;8.13;;;;;;;16.27;55.66;99073.38;373529;107;1963965;-72
2021/06/06 02:37:28;;;;;;;13.12;8.11;;;;;;;16.29;55.97;99064.95;373143;107;1961951;-72
2021/06/06 02:39:21;;;;;;;16.59;8.49;;;;;;;16.44;56.47;99070.55;407901;101;2046064;-71
2021/06/06 02:41:29;;;;;;;18.59;8.18;;;;;;;16.34;56.52;99074.00;346432;101;2720057;-72
2021/06/06 02:43:12;;;;;;;16.57;7.88;;;;;;;16.37;56.73;99072.66;385044;104;1964034;-71
2021/06/06 02:45:00;;;;;;;12.84;7.93;;;;;;;16.41;56.58;99081.98;349287;103;1962034;-71
2021/06/06 02:46:46;;;;;;;11.42;6.67;;;;;;;16.54;56.15;99083.43;371231;106;2047998;-70
2021/06/06 02:48:37;;;;;;;15.11;7.44;;;;;;;16.44;55.84;99078.73;370286;109;1962004;-72
2021/06/06 02:50:26;;;;;;;12.64;7.22;;;;;;;16.46;55.23;99090.20;370552;108;1963027;-71
2021/06/06 02:52:15;;;;;;;13.30;6.91;;;;;;;16.59;55.08;99089.78;398892;103;2047017;-72
2021/06/06 02:53:59;;;;;;;13.92;7.08;;;;;;;16.49;55.06;99082.32;368415;107;2925940;-71
2021/06/06 02:55:54;;;;;;;16.93;8.59;;;;;;;16.64;55.60;99092.52;360259;108;2376073;-73
2021/06/06 02:57:36;;;;;;;12.27;7.80;;;;;;;16.53;55.68;99088.06;364897;109;1963995;-72
2021/06/06 02:59:28;;;;;;;13.00;7.66;;;;;;;16.68;56.13;99090.11;383521;100;2048053;-72
2021/06/06 03:01:16;;;;;;;14.19;7.73;;;;;;;16.58;56.09;99079.12;373255;108;1963014;-72
2021/06/06 03:02:59;;;;;;;17.22;8.07;;;;;;;16.58;56.30;99087.30;370675;108;1962885;-72
2021/06/06 03:04:40;;;;;;;18.71;8.42;;;;;;;16.64;56.29;99094.43;381383;105;1961947;-71
2021/06/06 03:06:31;;;;;;;16.72;9.17;;;;;;;16.80;56.56;99092.69;353470;103;2647963;-73
2021/06/06 03:08:14;;;;;;;16.63;9.42;;;;;;;16.71;56.62;99089.59;367180;107;1962881;-71
2021/06/06 03:09:52;;;;;;;14.51;9.33;;;;;;;16.74;57.16;99096.44;373360;108;1960908;-72
2021/06/06 03:11:55;;;;;;;15.48;8.92;;;;;;;16.87;57.90;99085.92;389050;103;2865900;-71
2021/06/06 03:13:42;;;;;;;15.74;8.46;;;;;;;16.77;57.36;99094.02;371106;108;1963992;-72
2021/06/06 03:15:31;;;;;;;15.51;9.07;;;;;;;16.95;57.39;99094.72;332235;104;2234069;-72
2021/06/06 03:17:20;;;;;;;14.33;8.46;;;;;;;16.84;57.43;99089.19;375807;106;1961950;-72
2021/06/06 03:19:09;;;;;;;13.10;9.22;;;;;;;17.02;57.27;99093.41;341823;104;2880951;-72
2021/06/06 03:20:58;;;;;;;15.03;9.27;;;;;;;17.05;57.46;99100.25;391189;106;2046986;-72
2021/06/06 03:22:40;;;;;;;25.06;8.97;;;;;;;16.97;57.25;99108.92;375098;107;1961936;-73
2021/06/06 03:24:31;;;;;;;15.99;8.67;;;;;;;16.99;57.39;99104.01;369367;108;1964000;-73
2021/06/06 03:26:18;;;;;;;14.07;8.80;;;;;;;17.15;57.38;99103.05;391628;104;2046818;-72
2021/06/06 03:28:05;;;;;;;12.36;7.67;;;;;;;17.16;57.50;99103.88;397290;103;2047014;-73
2021/06/06 03:30:09;;;;;;;13.19;8.33;;;;;;;17.07;57.40;99106.28;335972;105;2886911;-71
2021/06/06 03:32:02;;;;;;;15.04;8.18;;;;;;;17.22;57.59;99106.36;409303;101;2047035;-72
2021/06/06 03:33:57;;;;;;;14.60;8.75;;;;;;;17.14;57.47;99109.58;382692;105;1964982;-73
2021/06/06 03:35:44;;;;;;;15.02;8.27;;;;;;;17.28;57.74;99105.33;384623;101;2047078;-73
2021/06/06 03:37:23;;;;;;;13.31;7.98;;;;;;;17.19;57.84;99111.53;386111;103;1963061;-73
2021/06/06 03:39:12;;;;;;;12.32;8.33;;;;;;;17.29;57.95;99106.95;364013;105;2047007;-72
2021/06/06 03:40:58;;;;;;;15.25;7.66;;;;;;;17.29;57.96;99108.87;408240;101;2046991;-74
2021/06/06 03:42:55;;;;;;;11.26;7.36;;;;;;;17.18;58.07;99112.62;384392;103;1963004;-71
2021/06/06 03:44:41;;;;;;;14.29;7.44;;;;;;;17.30;58.23;99105.86;378250;109;2048014;-72
2021/06/06 03:46:21;;;;;;;13.84;8.15;;;;;;;17.21;58.27;99103.91;361899;111;1962035;-72
2021/06/06 03:48:09;;;;;;;13.69;7.81;;;;;;;17.34;58.72;99098.80;396545;103;2048112;-72
2021/06/06 03:49:49;;;;;;;12.41;7.49;;;;;;;17.24;58.60;99104.19;373286;107;1962013;-71
2021/06/06 03:51:34;;;;;;;14.00;7.87;;;;;;;17.37;58.94;99091.98;384398;100;2369986;-73
2021/06/06 03:53:15;;;;;;;14.11;7.62;;;;;;;17.26;59.14;99095.75;389630;103;1961838;-73
2021/06/06 03:55:00;;;;;;;14.08;6.81;;;;;;;17.40;59.17;99085.18;340572;107;2886000;-73
2021/06/06 03:56:49;;;;;;;13.09;8.23;;;;;;;17.28;58.91;99083.48;367476;108;1961957;-72
2021/06/06 03:58:35;;;;;;;12.34;7.61;;;;;;;17.42;58.79;99077.55;389848;105;2046012;-74
2021/06/06 04:00:20;;;;;;;11.90;7.04;;;;;;;17.31;58.74;99080.22;372796;106;1963989;-74
2021/06/06 04:02:06;;;;;;;12.35;6.83;;;;;;;17.44;58.47;99081.66;384654;103;2046994;-73
2021/06/06 04:03:47;;;;;;;14.16;7.52;;;;;;;17.34;58.44;99079.69;380437;106;1962024;-72
2021/06/06 04:05:34;;;;;;;15.38;7.28;;;;;;;17.48;58.91;99071.84;412040;101;2047025;-73
2021/06/06 04:07:16;;;;;;;12.82;6.07;;;;;;;17.40;58.23;99077.80;389494;103;1962016;-72
2021/06/06 04:09:17;;;;;;;11.12;5.87;;;;;;;17.56;57.15;99076.78;385693;105;2046953;-72
2021/06/06 04:10:56;;;;;;;12.57;7.31;;;;;;;17.49;57.03;99075.38;319213;109;2827013;-72
2021/06/06 04:12:37;;;;;;;12.36;7.49;;;;;;;17.52;57.24;99070.23;344231;108;1961930;-74
2021/06/06 04:14:18;;;;;;;12.75;6.93;;;;;;;17.63;57.57;99083.94;366593;109;1961992;-72
2021/06/06 04:16:05;;;;;;;14.88;8.01;;;;;;;17.82;58.83;99084.31;392774;104;2046988;-72
2021/06/06 04:17:43;;;;;;;12.84;7.48;;;;;;;17.75;59.07;99089.98;369035;107;1961881;-72
2021/06/06 04:19:23;;;;;;;12.79;7.31;;;;;;;17.78;59.47;99090.28;339414;109;2485936;-74
2021/06/06 04:21:05;;;;;;;15.48;7.87;;;;;;;17.84;59.47;99090.34;360951;111;1962062;-74
2021/06/06 04:22:50;;;;;;;15.29;8.41;;;;;;;18.04;59.47;99098.58;387341;106;2046026;-73
2021/06/06 04:24:30;;;;;;;15.08;7.94;;;;;;;17.98;59.46;99099.66;367253;108;1962015;-73
2021/06/06 04:26:14;;;;;;;16.74;7.56;;;;;;;18.16;59.65;99098.36;393037;106;2039032;-72
2021/06/06 04:27:54;;;;;;;12.09;7.41;;;;;;;18.06;59.68;99092.86;372797;108;1961801;-73
2021/06/06 04:29:40;;;;;;;15.05;7.49;;;;;;;18.24;59.50;99095.09;402000;103;2045013;-73
2021/06/06 04:31:21;;;;;;;15.55;6.83;;;;;;;18.17;59.17;99091.78;375014;105;1961959;-72
2021/06/06 04:33:10;;;;;;;21.31;9.17;;;;;;;18.37;58.81;99088.28;389979;106;2047008;-72
2021/06/06 04:34:49;;;;;;;15.17;7.10;;;;;;;18.28;58.77;99082.51;372862;107;1962057;-72
2021/06/06 04:36:31;;;;;;;13.73;7.83;;;;;;;18.35;58.59;99093.20;373244;107;1962991;-73
2021/06/06 04:38:19;;;;;;;19.30;8.72;;;;;;;18.53;58.17;99098.14;411328;100;2046895;-72
2021/06/06 04:39:59;;;;;;;11.81;6.79;;;;;;;18.44;58.05;99092.41;380135;102;2881992;-72
2021/06/06 04:41:45;;;;;;;15.88;7.40;;;;;;;18.64;57.52;99096.23;389727;100;2046846;-72
2021/06/06 04:43:25;;;;;;;13.48;6.76;;;;;;;18.57;57.41;99093.75;372559;105;1965884;-70
2021/06/06 04:45:13;;;;;;;13.47;6.58;;;;;;;18.72;57.43;99090.22;385719;101;2048940;-71
2021/06/06 04:46:55;;;;;;;19.02;8.12;;;;;;;18.64;56.95;99091.58;339307;103;2343010;-73
2021/06/06 04:48:48;;;;;;;15.08;7.77;;;;;;;18.81;56.15;99104.19;391230;105;2043013;-74
2021/06/06 04:50:27;;;;;;;13.79;6.74;;;;;;;18.73;55.87;99102.79;375603;107;1964020;-73
2021/06/06 04:52:07;;;;;;;11.02;6.65;;;;;;;18.77;55.74;99103.93;317531;106;2141983;-73
2021/06/06 04:53:52;;;;;;;12.93;5.71;;;;;;;18.94;55.98;99103.64;405943;101;2046845;-73
2021/06/06 04:55:31;;;;;;;10.67;5.98;;;;;;;18.86;55.71;99104.19;351189;102;1979815;-72
2021/06/06 04:57:12;;;;;;;12.27;6.84;;;;;;;18.88;55.48;99100.09;393401;103;1962003;-73
2021/06/06 04:58:58;;;;;;;12.08;6.52;;;;;;;19.04;55.79;99098.16;392977;105;2046029;-73
2021/06/06 05:00:42;;;;;;;12.46;5.68;;;;;;;18.96;56.52;99101.45;377278;106;1963990;-72
2021/06/06 05:02:22;;;;;;;12.79;6.10;;;;;;;18.99;57.04;99100.09;338290;106;2664992;-72
2021/06/06 05:04:08;;;;;;;13.82;5.54;;;;;;;19.13;56.57;99095.68;380965;101;2047856;-74
2021/06/06 05:05:49;;;;;;;9.05;4.98;;;;;;;19.03;56.19;99098.45;373191;103;1961802;-73
2021/06/06 05:07:36;;;;;;;11.57;5.09;;;;;;;19.17;56.29;99098.70;394220;103;2046931;-72
2021/06/06 05:09:15;;;;;;;8.67;5.00;;;;;;;19.07;56.05;99105.81;376163;105;1961888;-72
2021/06/06 05:11:01;;;;;;;14.75;6.27;;;;;;;19.24;56.12;99096.51;382986;107;2049938;-72
2021/06/06 05:12:40;;;;;;;11.50;5.80;;;;;;;19.17;56.14;99098.70;364496;109;1961955;-73
2021/06/06 05:14:40;;;;;;;9.71;5.43;;;;;;;19.36;56.49;99087.98;386610;105;2045985;-73
2021/06/06 05:16:19;;;;;;;9.67;4.97;;;;;;;19.27;56.47;99094.03;330959;107;2718049;-73
2021/06/06 05:18:05;;;;;;;12.22;4.96;;;;;;;19.46;56.41;99088.77;395770;103;2047957;-74
2021/06/06 05:19:46;;;;;;;10.11;4.73;;;;;;;19.41;56.13;99087.97;379024;105;1962061;-72
2021/06/06 05:21:32;;;;;;;9.28;4.83;;;;;;;19.62;56.78;99097.77;384502;107;2046063;-73
2021/06/06 05:23:11;;;;;;;11.71;4.69;;;;;;;19.55;56.37;99097.23;321495;109;2022871;-73
2021/06/06 05:24:57;;;;;;;10.98;4.14;;;;;;;19.70;55.10;99099.95;384001;106;2046929;-72
2021/06/06 05:26:37;;;;;;;8.45;3.89;;;;;;;19.59;54.99;99100.25;367694;108;1962078;-74
2021/06/06 05:28:26;;;;;;;7.18;3.80;;;;;;;19.75;53.65;99099.13;408356;101;2048924;-73
2021/06/06 05:30:05;;;;;;;9.13;3.29;;;;;;;19.68;53.44;99101.33;388221;103;1962015;-74
2021/06/06 05:31:44;;;;;;;8.15;3.32;;;;;;;19.78;52.60;99105.96;386815;103;1962085;-75
2021/06/06 05:33:43;;;;;;;7.07;3.13;;;;;;;20.02;51.89;99106.12;400772;101;2046080;-74
2021/06/06 05:35:22;;;;;;;11.20;3.94;;;;;;;19.87;52.15;99085.08;350849;103;1961999;-73
2021/06/06 05:37:09;;;;;;;8.32;3.73;;;;;;;20.18;52.40;99102.20;347135;110;2541928;-72
2021/06/06 05:38:48;;;;;;;8.49;3.46;;;;;;;20.13;51.20;99102.22;351611;111;2887059;-72
2021/06/06 05:40:48;;;;;;;7.77;3.42;;;;;;;20.40;50.71;99099.88;376951;106;2917007;-69
2021/06/06 05:42:27;;;;;;;9.98;3.53;;;;;;;20.37;50.20;99102.35;369013;108;1961886;-72
2021/06/06 05:44:14;;;;;;;8.79;3.92;;;;;;;20.63;49.90;99100.28;341552;105;2884020;-73
2021/06/06 05:45:55;;;;;;;8.71;3.67;;;;;;;20.59;50.32;99099.23;337456;106;2680985;-72
2021/06/06 05:47:41;;;;;;;8.65;4.14;;;;;;;20.89;50.62;99100.91;407478;100;2046059;-69
2021/06/06 05:49:19;;;;;;;9.61;3.67;;;;;;;20.84;50.54;99101.76;369079;105;1961900;-72
2021/06/06 05:51:06;;;;;;;7.30;3.74;;;;;;;21.11;51.02;99099.61;404345;102;2046943;-73
2021/06/06 05:52:50;;;;;;;7.58;3.18;;;;;;;21.08;51.26;99101.00;334158;105;2772962;-71
2021/06/06 05:54:36;;;;;;;7.96;3.22;;;;;;;21.33;50.51;99101.85;410505;101;2045964;-73
2021/06/06 05:56:15;;;;;;;6.05;3.14;;;;;;;21.27;50.06;99098.34;379878;103;2898022;-73
2021/06/06 05:57:57;;;;;;;6.81;3.32;;;;;;;21.35;49.96;99097.70;337431;105;2801008;-74
2021/06/06 05:59:42;;;;;;;8.93;4.23;;;;;;;21.59;49.96;99094.19;410743;100;2048917;-73
2021/06/06 06:01:22;;;;;;;8.64;4.21;;;;;;;21.54;50.08;99097.83;342270;103;2750982;-73
2021/06/06 06:03:02;;;;;;;10.31;3.93;;;;;;;21.65;49.94;99098.53;345843;105;2658261;-72
2021/06/06 06:04:47;;;;;;;12.73;4.14;;;;;;;21.91;49.55;99099.01;366042;103;2047028;-72
2021/06/06 06:06:28;;;;;;;5.90;2.56;;;;;;;21.85;49.34;99097.45;337265;105;2769018;-72
2021/06/06 06:08:36;;;;;;;13.07;4.21;;;;;;;21.85;46.50;99091.95;379080;107;1961982;-72
2021/06/06 06:10:29;;;;;;;9.97;3.47;;;;;;;22.02;46.88;99106.04;352315;103;2826936;-73
2021/06/06 06:12:09;;;;;;;8.85;3.31;;;;;;;21.92;46.89;99104.23;339056;103;2713135;-72
2021/06/06 06:13:49;;;;;;;9.35;3.93;;;;;;;21.97;46.56;99097.85;358182;106;2858014;-73
2021/06/06 06:15:34;;;;;;;9.17;3.62;;;;;;;22.17;46.25;99103.09;355735;101;2199997;-73
2021/06/06 06:17:13;;;;;;;9.72;2.84;;;;;;;22.08;46.43;99099.34;388976;102;1962939;-72
2021/06/06 06:19:01;;;;;;;9.13;3.53;;;;;;;22.33;45.90;99100.97;387270;107;2035836;-73
2021/06/06 06:20:41;;;;;;;9.29;3.80;;;;;;;22.27;45.79;99101.33;335145;109;2625833;-73
2021/06/06 06:22:26;;;;;;;11.49;4.12;;;;;;;22.40;44.68;99103.33;370664;104;2046064;-74
2021/06/06 06:24:06;;;;;;;11.04;3.52;;;;;;;22.27;45.03;99104.08;367947;108;1961985;-72
2021/06/06 06:25:46;;;;;;;6.16;2.70;;;;;;;22.23;43.70;99098.36;368419;107;1960755;-74
2021/06/06 06:27:45;;;;;;;15.56;4.59;;;;;;;22.25;43.65;99101.61;387059;105;2047877;-72
2021/06/06 06:29:44;;;;;;;11.41;3.67;;;;;;;22.14;43.63;99098.16;369573;107;1962085;-72
2021/06/06 06:31:33;;;;;;;6.81;3.14;;;;;;;22.21;44.04;99097.83;351867;106;2680967;-72
2021/06/06 06:33:15;;;;;;;7.27;2.83;;;;;;;22.06;44.09;99098.81;362585;109;1965034;-71
2021/06/06 06:35:01;;;;;;;5.68;2.16;;;;;;;22.08;45.23;99091.09;409705;101;2047025;-73
2021/06/06 06:36:40;;;;;;;7.26;2.62;;;;;;;21.94;45.58;99095.70;388663;102;1963876;-72
2021/06/06 06:38:21;;;;;;;6.28;1.88;;;;;;;21.91;45.05;99096.26;337379;104;2790950;-72
2021/06/06 06:40:07;;;;;;;7.52;2.63;;;;;;;21.95;45.19;99094.57;409470;101;2045954;-73
2021/06/06 06:41:45;;;;;;;7.55;2.64;;;;;;;21.81;45.21;99102.73;363715;103;1961051;-74
2021/06/06 06:43:30;;;;;;;9.91;3.08;;;;;;;21.71;47.85;99095.41;334701;102;2215316;-73
2021/06/06 06:45:14;;;;;;;12.73;3.51;;;;;;;21.56;48.02;99095.59;360020;110;1962026;-73
2021/06/06 06:46:53;;;;;;;7.99;3.48;;;;;;;21.55;47.42;99099.45;359887;110;1964022;-73
2021/06/06 06:48:40;;;;;;;9.24;3.24;;;;;;;21.61;48.10;99098.28;384021;106;2047092;-71
2021/06/06 06:50:20;;;;;;;9.75;3.79;;;;;;;21.50;48.24;99094.83;368076;109;1961984;-72
2021/06/06 06:52:06;;;;;;;7.14;3.39;;;;;;;21.69;47.40;99094.06;407261;101;2046048;-72
2021/06/06 06:53:46;;;;;;;6.60;2.45;;;;;;;21.62;47.37;99090.84;382556;105;1961821;-74
2021/06/06 06:55:33;;;;;;;6.14;2.61;;;;;;;21.83;46.63;99092.27;385039;106;2047008;-73
2021/06/06 06:57:13;;;;;;;7.41;3.03;;;;;;;21.76;46.79;99090.98;363690;110;1961971;-72
2021/06/06 06:58:51;;;;;;;5.45;2.37;;;;;;;21.87;47.00;99096.05;363508;109;1962966;-74
2021/06/06 07:00:44;;;;;;;7.83;3.21;;;;;;;22.14;46.52;99089.09;384907;107;2046078;-73
2021/06/06 07:02:24;;;;;;;6.97;2.76;;;;;;;22.10;46.06;99090.81;365990;109;1962115;-73
2021/06/06 07:04:03;;;;;;;8.66;3.43;;;;;;;22.25;46.11;99085.09;364577;110;1964062;-71
2021/06/06 07:05:49;;;;;;;7.67;3.22;;;;;;;22.54;45.71;99078.63;393662;103;3022062;-73
2021/06/06 07:07:29;;;;;;;7.88;3.16;;;;;;;22.48;45.27;99088.90;379552;105;1963996;-72
2021/06/06 07:09:30;;;;;;;7.04;1.93;;;;;;;22.76;44.57;99076.07;392142;103;2046971;-74
2021/06/06 07:11:09;;;;;;;5.54;2.78;;;;;;;22.73;44.22;99081.34;371558;107;1961907;-74
2021/06/06 07:12:49;;;;;;;5.73;2.24;;;;;;;22.82;43.87;99088.63;364486;109;1961945;-73
2021/06/06 07:14:34;;;;;;;6.86;1.95;;;;;;;23.08;42.92;99079.16;391225;104;2047055;-73
2021/06/06 07:16:14;;;;;;;8.46;2.89;;;;;;;23.03;42.32;99080.05;361023;105;1961977;-73
2021/06/06 07:18:01;;;;;;;3.06;1.59;;;;;;;23.26;41.54;99081.02;396767;104;2048023;-73
2021/06/06 07:19:40;;;;;;;4.98;2.06;;;;;;;23.19;41.11;99078.65;377196;107;1962108;-73
2021/06/06 07:21:27;;;;;;;4.72;2.33;;;;;;;23.33;41.06;99075.91;391951;104;2045901;-71
2021/06/06 07:23:05;;;;;;;4.57;2.18;;;;;;;23.23;41.10;99078.84;368689;108;1961937;-73
2021/06/06 07:24:51;;;;;;;6.46;2.89;;;;;;;23.34;40.46;99077.55;399095;101;2045979;-73
2021/06/06 07:26:37;;;;;;;4.83;2.16;;;;;;;23.24;40.48;99078.55;372614;103;1961938;-73
2021/06/06 07:28:28;;;;;;;3.55;1.56;;;;;;;23.36;39.97;99075.29;408124;101;2044026;-73
2021/06/06 07:30:07;;;;;;;;;;;;;;;23.23;39.96;99079.69;323915;103;2251003;-72
2021/06/06 07:31:53;;;;;;;6.44;1.84;;;;;;;23.20;39.47;99082.22;376276;107;1960844;-71
2021/06/06 07:33:42;;;;;;;4.65;2.13;;;;;;;23.29;39.24;99085.92;406077;101;2046040;-73
2021/06/06 07:35:24;;;;;;;6.13;2.34;;;;;;;23.17;39.27;99080.88;386839;103;1963021;-74
2021/06/06 07:37:07;;;;;;;8.15;2.54;;;;;;;23.19;39.38;99086.10;378904;103;2888031;-73
2021/06/06 07:38:57;;;;;;;7.51;2.77;;;;;;;23.31;39.85;99078.14;415163;99;2046802;-73
2021/06/06 07:40:40;;;;;;;6.80;2.30;;;;;;;23.21;39.93;99079.17;394376;101;1962992;-74
2021/06/06 07:42:20;;;;;;;5.11;2.12;;;;;;;23.20;40.01;99083.03;394271;101;1961982;-73
2021/06/06 07:44:09;;;;;;;9.22;2.76;;;;;;;23.32;40.44;99085.30;384713;105;2045847;-73
2021/06/06 07:45:49;;;;;;;7.01;2.10;;;;;;;23.20;40.36;99085.78;371071;108;1962034;-72
2021/06/06 07:47:36;;;;;;;14.09;3.36;;;;;;;23.29;40.70;99087.83;355763;103;2890018;-74
2021/06/06 07:49:17;;;;;;;9.90;3.78;;;;;;;23.17;40.88;99083.64;343217;105;2616109;-73
2021/06/06 07:51:03;;;;;;;13.74;4.74;;;;;;;23.26;41.79;99086.53;393155;105;2046867;-74
2021/06/06 07:52:45;;;;;;;13.86;4.44;;;;;;;23.16;41.85;99092.23;372648;107;1961970;-73
2021/06/06 07:54:24;;;;;;;13.26;3.73;;;;;;;23.12;41.65;99093.94;357375;110;1962012;-73
2021/06/06 07:56:12;;;;;;;16.01;5.26;;;;;;;23.19;41.98;99086.91;384855;106;2046023;-73
2021/06/06 07:57:50;;;;;;;12.09;4.08;;;;;;;23.08;42.11;99092.92;367709;109;1962011;-71
2021/06/06 07:59:38;;;;;;;8.90;3.36;;;;;;;23.15;41.62;99094.14;403247;103;2047030;-73
2021/06/06 08:01:16;;;;;;;10.37;3.63;;;;;;;23.03;41.56;99089.13;383632;105;1962739;-72